createdAt,value
2023-01-17T00:02:34.433Z,53.73
2023-01-17T00:07:55.284Z,51.20
2023-01-17T00:13:00.860Z,54.67
2023-01-17T00:18:03.229Z,51.80
2023-01-17T00:23:25.571Z,54.07
2023-01-17T00:28:28.687Z,47.87
2023-01-17T00:33:31.665Z,47.07
2023-01-17T00:38:36.813Z,49.13
2023-01-17T00:43:58.201Z,47.80
2023-01-17T00:49:19.261Z,57.87
2023-01-17T00:54:40.192Z,56.50
2023-01-17T01:00:01.005Z,56.93
2023-01-17T01:05:21.864Z,50.70
2023-01-17T01:10:42.641Z,53.30
2023-01-17T01:16:03.934Z,60.57
2023-01-17T01:21:25.036Z,52.57
2023-01-17T01:26:45.976Z,52.30
2023-01-17T01:32:06.701Z,50.33
2023-01-17T01:37:09.099Z,53.13
2023-01-17T01:42:15.601Z,46.53
2023-01-17T01:47:40.810Z,49.97
2023-01-17T01:52:48.121Z,49.83
2023-01-17T01:57:53.445Z,57.03
2023-01-17T02:03:00.019Z,59.27
2023-01-17T02:08:08.699Z,56.93
2023-01-17T02:13:13.149Z,51.27
2023-01-17T02:18:25.728Z,50.90
2023-01-17T02:23:50.030Z,54.23
2023-01-17T02:29:24.542Z,51.80
2023-01-17T02:34:56.026Z,46.40
2023-01-17T02:40:11.581Z,54.03
2023-01-17T02:45:19.332Z,60.83
2023-01-17T02:50:26.722Z,57.90
2023-01-17T02:55:57.784Z,66.53
2023-01-17T03:01:15.921Z,67.83
2023-01-17T03:06:32.473Z,71.10
2023-01-17T03:11:34.880Z,61.00
2023-01-17T03:16:37.461Z,64.30
2023-01-17T03:21:40.129Z,62.73
2023-01-17T03:26:45.072Z,62.47
2023-01-17T03:31:47.514Z,64.13
2023-01-17T03:36:49.928Z,65.43
2023-01-17T03:41:52.277Z,64.67
2023-01-17T03:46:54.588Z,62.10
2023-01-17T03:51:56.912Z,59.83
2023-01-17T03:56:59.336Z,54.20
2023-01-17T04:02:01.833Z,62.20
2023-01-17T04:07:04.677Z,59.93
2023-01-17T04:12:07.314Z,56.93
2023-01-17T04:17:13.298Z,47.60
2023-01-17T04:22:16.051Z,49.03
2023-01-17T04:27:18.690Z,55.63
2023-01-17T04:32:21.031Z,51.13
2023-01-17T04:37:23.434Z,52.83
2023-01-17T04:42:25.816Z,49.70
2023-01-17T04:47:28.190Z,47.03
2023-01-17T04:52:30.518Z,47.23
2023-01-17T04:57:32.851Z,40.17
2023-01-17T05:02:38.840Z,43.03
2023-01-17T05:07:41.177Z,56.50
2023-01-17T05:12:43.569Z,34.70
2023-01-17T05:17:45.943Z,33.87
2023-01-17T05:22:58.054Z,45.83
2023-01-17T05:28:00.700Z,39.00
2023-01-17T05:33:03.095Z,49.97
2023-01-17T05:38:05.589Z,38.77
2023-01-17T05:43:08.983Z,48.33
2023-01-17T05:48:11.381Z,48.00
2023-01-17T05:53:15.963Z,42.23
2023-01-17T05:58:21.319Z,33.77
2023-01-17T06:03:23.747Z,34.37
2023-01-17T06:08:26.123Z,28.73
2023-01-17T06:13:28.484Z,30.03
2023-01-17T06:18:31.742Z,24.80
2023-01-17T06:23:34.304Z,24.37
2023-01-17T06:28:36.667Z,27.67
2023-01-17T06:33:38.996Z,33.27
2023-01-17T06:38:41.317Z,34.73
2023-01-17T06:43:43.656Z,57.07
2023-01-17T06:48:46.187Z,33.43
2023-01-17T06:53:49.077Z,20.63
2023-01-17T06:58:52.177Z,20.37
2023-01-17T07:03:54.873Z,25.50
2023-01-17T07:08:57.449Z,34.77
2023-01-17T07:13:59.915Z,22.90
2023-01-17T07:19:02.332Z,21.07
2023-01-17T07:24:05.337Z,16.10
2023-01-17T07:29:07.804Z,19.33
2023-01-17T07:34:10.713Z,18.23
2023-01-17T07:39:13.121Z,19.27
2023-01-17T07:44:15.586Z,13.37
2023-01-17T07:49:17.962Z,14.80
2023-01-17T07:54:20.296Z,21.20
2023-01-17T07:59:22.689Z,20.80
2023-01-17T08:04:29.047Z,20.60
2023-01-17T08:09:31.576Z,15.50
2023-01-17T08:14:33.981Z,18.07
2023-01-17T08:19:36.344Z,19.53
2023-01-17T08:24:43.169Z,20.23
2023-01-17T08:29:48.382Z,26.20
2023-01-17T08:34:50.979Z,26.47
2023-01-17T08:39:53.338Z,32.87
2023-01-17T08:44:57.953Z,30.27
2023-01-17T08:50:01.102Z,37.53
2023-01-17T08:55:05.963Z,26.50
2023-01-17T09:00:09.413Z,18.97
2023-01-17T09:05:13.540Z,39.13
2023-01-17T09:10:16.445Z,23.73
2023-01-17T09:15:20.284Z,13.53
2023-01-17T09:20:23.865Z,21.83
2023-01-17T09:25:27.122Z,21.90
2023-01-17T09:30:29.586Z,10.93
2023-01-17T09:35:32.061Z,14.33
2023-01-17T09:40:36.644Z,20.90
2023-01-17T09:45:39.197Z,15.80
2023-01-17T09:50:52.807Z,17.80
2023-01-17T09:56:03.601Z,17.97
2023-01-17T10:01:06.056Z,19.73
2023-01-17T10:06:34.489Z,17.87
2023-01-17T10:11:45.869Z,16.33
2023-01-17T10:17:16.289Z,12.40
2023-01-17T10:22:31.152Z,17.73
2023-01-17T10:27:46.653Z,11.83
2023-01-17T10:32:50.419Z,9.87
2023-01-17T10:37:56.936Z,17.77
2023-01-17T10:43:10.566Z,8.67
2023-01-17T10:48:23.137Z,11.37
2023-01-17T10:53:45.145Z,97.93
2023-01-17T10:58:49.236Z,8.37
2023-01-17T11:03:53.848Z,15.60
2023-01-17T11:09:03.125Z,11.70
2023-01-17T11:14:15.218Z,13.30
2023-01-17T11:19:30.523Z,11.97
2023-01-17T11:24:37.174Z,11.77
2023-01-17T11:29:40.771Z,8.23
2023-01-17T11:34:43.150Z,12.57
2023-01-17T11:39:48.288Z,9.93
2023-01-17T11:44:50.792Z,13.43
2023-01-17T11:49:55.385Z,16.77
2023-01-17T11:54:58.191Z,11.23
2023-01-17T12:00:30.752Z,13.80
2023-01-17T12:06:02.368Z,9.47
2023-01-17T12:11:28.990Z,12.73
2023-01-17T12:16:56.042Z,4.83
2023-01-17T12:22:13.386Z,9.70
2023-01-17T12:27:25.068Z,8.43
2023-01-17T12:32:55.412Z,15.07
2023-01-17T12:38:05.559Z,11.70
2023-01-17T12:43:15.486Z,12.67
2023-01-17T12:48:20.682Z,10.53
2023-01-17T12:53:45.320Z,9.23
2023-01-17T12:58:52.739Z,9.23
2023-01-17T13:04:46.917Z,9.20
2023-01-17T13:10:21.459Z,5.23
2023-01-17T13:15:29.011Z,15.37
2023-01-17T13:20:54.008Z,13.90
2023-01-17T13:25:59.032Z,12.97
2023-01-17T13:31:21.825Z,31.77
2023-01-17T13:36:44.941Z,27.33
2023-01-17T13:42:01.047Z,19.87
2023-01-17T13:47:05.154Z,17.03
2023-01-17T13:52:11.048Z,13.40
2023-01-17T13:57:30.364Z,13.43
2023-01-17T14:02:32.739Z,9.07
2023-01-17T14:07:40.180Z,9.10
2023-01-17T14:12:43.863Z,5.57
2023-01-17T14:17:56.891Z,11.30
2023-01-17T14:23:02.340Z,21.33
2023-01-17T14:28:25.670Z,34.10
2023-01-17T14:33:34.046Z,44.33
2023-01-17T14:38:44.139Z,254.57
2023-01-17T14:43:48.432Z,97.07
2023-01-17T14:49:15.834Z,23.70
2023-01-17T14:54:22.416Z,16.47
2023-01-17T14:59:24.810Z,28.50
2023-01-17T15:04:28.895Z,62.33
2023-01-17T15:09:36.510Z,57.83
2023-01-17T15:14:42.695Z,45.03
2023-01-17T15:19:51.503Z,75.83
2023-01-17T15:24:54.602Z,276.63
2023-01-17T15:30:01.897Z,242.70
2023-01-17T15:35:08.188Z,302.43
2023-01-17T15:40:20.498Z,163.10
2023-01-17T15:45:29.965Z,246.73
2023-01-17T15:50:36.529Z,105.27
2023-01-17T15:55:39.966Z,94.03
2023-01-17T16:00:44.279Z,106.93
2023-01-17T16:05:47.684Z,78.43
2023-01-17T16:10:55.134Z,72.97
2023-01-17T16:16:30.148Z,90.20
2023-01-17T16:21:33.310Z,49.43
2023-01-17T16:26:35.727Z,31.33
2023-01-17T16:31:38.098Z,105.97
2023-01-17T16:36:40.671Z,90.33
2023-01-17T16:41:43.322Z,85.27
2023-01-17T16:46:45.650Z,96.67
2023-01-17T16:51:47.984Z,142.13
2023-01-17T16:56:50.481Z,155.23
2023-01-17T17:01:53.098Z,263.63
2023-01-17T17:06:55.433Z,271.97
2023-01-17T17:11:57.750Z,222.37
2023-01-17T17:17:03.239Z,211.60
2023-01-17T17:22:06.698Z,186.10
2023-01-17T17:27:09.183Z,194.07
2023-01-17T17:32:11.658Z,202.87
2023-01-17T17:37:16.140Z,166.57
2023-01-17T17:42:20.041Z,184.23
2023-01-17T17:47:24.027Z,189.60
2023-01-17T17:52:28.008Z,186.10
2023-01-17T17:57:30.363Z,190.03
2023-01-17T18:02:32.703Z,346.67
2023-01-17T18:07:35.062Z,396.23
2023-01-17T18:12:37.581Z,340.50
2023-01-17T18:17:39.984Z,363.57
2023-01-17T18:22:42.383Z,359.90
2023-01-17T18:27:45.164Z,388.63
2023-01-17T18:32:49.916Z,425.53
2023-01-17T18:37:52.541Z,453.93
2023-01-17T18:42:55.876Z,493.40
2023-01-17T18:47:58.378Z,507.43
2023-01-17T18:53:00.793Z,433.57
2023-01-17T18:58:03.111Z,396.73
2023-01-17T19:03:06.388Z,460.57
2023-01-17T19:08:09.576Z,478.67
2023-01-17T19:13:14.831Z,485.03
2023-01-17T19:18:17.560Z,426.17
2023-01-17T19:23:19.963Z,458.07
2023-01-17T19:28:22.572Z,483.03
2023-01-17T19:33:24.862Z,591.97
2023-01-17T19:38:27.825Z,504.30
2023-01-17T19:43:30.210Z,484.33
2023-01-17T19:48:32.602Z,344.27
2023-01-17T19:53:37.261Z,382.63
2023-01-17T19:58:39.617Z,264.27
2023-01-17T20:03:43.824Z,302.60
2023-01-17T20:08:46.585Z,261.27
2023-01-17T20:13:53.426Z,307.73
2023-01-17T20:18:56.784Z,272.67
2023-01-17T20:24:00.129Z,292.93
2023-01-17T20:29:07.383Z,342.30
2023-01-17T20:34:12.838Z,276.13
2023-01-17T20:39:15.948Z,312.73
2023-01-17T20:44:19.946Z,279.17
2023-01-17T20:49:22.441Z,288.77
2023-01-17T20:54:24.766Z,325.67
2023-01-17T20:59:27.099Z,322.40
2023-01-17T21:04:29.530Z,282.53
2023-01-17T21:09:31.913Z,303.90
2023-01-17T21:14:34.300Z,371.77
2023-01-17T21:19:36.824Z,245.60
2023-01-17T21:24:39.177Z,346.87
2023-01-17T21:29:41.513Z,290.83
2023-01-17T21:34:43.809Z,348.47
2023-01-17T21:39:51.392Z,244.47
2023-01-17T21:44:54.516Z,218.70
2023-01-17T21:49:56.905Z,321.00
2023-01-17T21:55:17.865Z,337.33
2023-01-17T22:00:20.425Z,431.33
2023-01-17T22:05:22.748Z,395.83
2023-01-17T22:10:25.094Z,413.13
2023-01-17T22:15:27.436Z,291.23
2023-01-17T22:20:29.881Z,290.53
2023-01-17T22:25:32.260Z,329.93
2023-01-17T22:30:34.788Z,388.90
2023-01-17T22:35:37.123Z,379.30
2023-01-17T22:40:39.538Z,366.23
2023-01-17T22:45:42.404Z,325.23
2023-01-17T22:50:44.737Z,348.70
2023-01-17T22:55:47.095Z,324.40
2023-01-17T23:00:49.680Z,367.00
2023-01-17T23:05:52.375Z,369.33
2023-01-17T23:11:14.965Z,327.63
2023-01-17T23:16:36.136Z,287.13
2023-01-17T23:21:57.049Z,263.33
2023-01-17T23:27:17.797Z,237.03
2023-01-17T23:32:20.151Z,182.37
2023-01-17T23:37:46.435Z,187.97
2023-01-17T23:43:07.347Z,135.00
2023-01-17T23:48:10.958Z,183.43
2023-01-17T23:53:22.126Z,133.80
2023-01-17T23:58:26.669Z,147.80
